createdAt,value
2019-01-12T00:02:17.132Z,87.20
2019-01-12T00:04:46.745Z,87.10
2019-01-12T00:07:16.365Z,87.00
2019-01-12T00:09:45.976Z,86.80
2019-01-12T00:12:16.565Z,87.20
2019-01-12T00:14:46.192Z,86.60
2019-01-12T00:17:16.133Z,86.50
2019-01-12T00:19:45.756Z,86.20
2019-01-12T00:22:15.462Z,86.10
2019-01-12T00:24:45.208Z,85.70
2019-01-12T00:27:14.899Z,85.50
2019-01-12T00:29:44.904Z,84.70
2019-01-12T00:32:14.950Z,85.00
2019-01-12T00:34:44.636Z,84.70
2019-01-12T00:37:14.290Z,85.20
2019-01-12T00:39:44.095Z,84.80
2019-01-12T00:42:13.924Z,84.90
2019-01-12T00:44:43.833Z,84.30
2019-01-12T00:47:13.541Z,84.60
2019-01-12T00:49:43.340Z,84.70
2019-01-12T00:52:13.020Z,84.70
2019-01-12T00:54:42.704Z,84.80
2019-01-12T00:57:12.364Z,84.80
2019-01-12T00:59:42.046Z,84.50
2019-01-12T01:02:12.112Z,84.60
2019-01-12T01:04:42.935Z,84.40
2019-01-12T01:07:12.727Z,84.30
2019-01-12T01:09:42.640Z,84.10
2019-01-12T01:12:12.289Z,84.20
2019-01-12T01:14:41.962Z,84.20
2019-01-12T01:17:11.962Z,84.30
2019-01-12T01:19:41.745Z,84.20
2019-01-12T01:22:11.577Z,84.20
2019-01-12T01:24:45.777Z,84.40
2019-01-12T01:27:12.980Z,84.30
2019-01-12T01:29:42.694Z,84.40
2019-01-12T01:32:12.332Z,84.40
2019-01-12T01:34:42.120Z,84.30
2019-01-12T01:37:11.835Z,84.30
2019-01-12T01:39:41.774Z,83.60
2019-01-12T01:42:11.559Z,82.90
2019-01-12T01:44:41.261Z,83.20
2019-01-12T01:47:11.016Z,83.30
2019-01-12T01:49:40.658Z,83.70
2019-01-12T01:52:10.385Z,82.50
2019-01-12T01:54:40.025Z,82.70
2019-01-12T01:57:09.739Z,83.10
2019-01-12T01:59:39.478Z,83.00
2019-01-12T02:02:09.629Z,83.00
2019-01-12T02:04:39.364Z,83.00
2019-01-12T02:07:09.508Z,82.90
2019-01-12T02:09:39.404Z,82.60
2019-01-12T02:12:09.036Z,83.00
2019-01-12T02:14:38.743Z,82.90
2019-01-12T02:17:08.468Z,82.40
2019-01-12T02:19:38.194Z,82.00
2019-01-12T02:22:08.978Z,82.30
2019-01-12T02:24:39.280Z,81.90
2019-01-12T02:27:09.145Z,82.20
2019-01-12T02:29:38.835Z,82.10
2019-01-12T02:32:08.509Z,82.10
2019-01-12T02:34:38.265Z,81.70
2019-01-12T02:37:07.958Z,82.10
2019-01-12T02:39:37.984Z,81.90
2019-01-12T02:42:07.727Z,82.10
2019-01-12T02:44:37.387Z,82.20
2019-01-12T02:47:07.040Z,82.60
2019-01-12T02:49:36.694Z,83.00
2019-01-12T02:52:06.585Z,82.60
2019-01-12T02:54:36.659Z,82.80
2019-01-12T02:57:06.477Z,83.10
2019-01-12T02:59:36.180Z,83.60
2019-01-12T03:02:06.522Z,83.30
2019-01-12T03:04:36.267Z,83.70
2019-01-12T03:07:06.248Z,83.90
2019-01-12T03:09:35.969Z,84.00
2019-01-12T03:12:05.647Z,84.30
2019-01-12T03:14:35.300Z,84.40
2019-01-12T03:17:05.176Z,84.50
2019-01-12T03:19:34.837Z,84.30
2019-01-12T03:22:04.578Z,84.40
2019-01-12T03:24:34.541Z,84.60
2019-01-12T03:27:04.582Z,84.30
2019-01-12T03:29:34.797Z,84.30
2019-01-12T03:32:04.899Z,84.30
2019-01-12T03:34:34.544Z,84.50
2019-01-12T03:37:04.680Z,84.70
2019-01-12T03:39:34.358Z,84.50
2019-01-12T03:42:04.089Z,84.70
2019-01-12T03:44:33.747Z,84.90
2019-01-12T03:47:03.469Z,85.30
2019-01-12T03:49:33.185Z,86.30
2019-01-12T03:52:02.879Z,86.40
2019-01-12T03:54:32.503Z,86.90
2019-01-12T03:57:02.117Z,87.20
2019-01-12T03:59:31.737Z,88.00
2019-01-12T04:02:01.340Z,88.30
2019-01-12T04:04:31.076Z,88.80
2019-01-12T04:07:00.722Z,89.20
2019-01-12T04:09:30.342Z,89.80
2019-01-12T04:12:00.219Z,89.90
2019-01-12T04:14:30.120Z,90.20
2019-01-12T04:16:59.801Z,90.20
2019-01-12T04:19:29.426Z,90.30
2019-01-12T04:21:59.297Z,90.50
2019-01-12T04:24:29.219Z,90.60
2019-01-12T04:26:59.430Z,90.70
2019-01-12T04:29:29.168Z,90.80
2019-01-12T04:31:58.781Z,90.70
2019-01-12T04:34:28.397Z,91.10
2019-01-12T04:36:58.388Z,91.20
2019-01-12T04:39:28.063Z,91.20
2019-01-12T04:41:58.036Z,91.30
2019-01-12T04:44:27.748Z,91.30
2019-01-12T04:46:57.399Z,91.60
2019-01-12T04:49:27.403Z,91.80
2019-01-12T04:51:57.099Z,91.90
2019-01-12T04:54:26.808Z,91.90
2019-01-12T04:56:56.749Z,92.00
2019-01-12T04:59:26.777Z,92.20
2019-01-12T05:01:57.545Z,92.20
2019-01-12T05:04:27.229Z,92.30
2019-01-12T05:06:56.879Z,92.40
2019-01-12T05:09:26.600Z,92.60
2019-01-12T05:11:56.507Z,92.40
2019-01-12T05:14:26.228Z,92.80
2019-01-12T05:16:56.178Z,92.90
2019-01-12T05:19:26.211Z,92.90
2019-01-12T05:21:55.897Z,93.10
2019-01-12T05:24:25.611Z,93.20
2019-01-12T05:26:55.321Z,93.10
2019-01-12T05:29:25.305Z,93.00
2019-01-12T05:31:55.237Z,93.00
2019-01-12T05:34:24.934Z,93.10
2019-01-12T05:36:54.598Z,93.20
2019-01-12T05:39:24.227Z,93.20
2019-01-12T05:41:53.968Z,93.20
2019-01-12T05:44:23.847Z,93.20
2019-01-12T05:46:53.510Z,93.20
2019-01-12T05:49:23.357Z,93.30
2019-01-12T05:51:52.995Z,93.50
2019-01-12T05:54:22.608Z,93.50
2019-01-12T05:56:52.547Z,93.50
2019-01-12T05:59:22.219Z,93.40
2019-01-12T06:01:52.828Z,93.20
2019-01-12T06:04:22.485Z,93.00
2019-01-12T06:06:52.085Z,92.90
2019-01-12T06:09:21.705Z,93.00
2019-01-12T06:11:51.605Z,92.70
2019-01-12T06:14:21.289Z,93.00
2019-01-12T06:16:50.897Z,92.50
2019-01-12T06:19:21.502Z,92.40
2019-01-12T06:21:51.123Z,92.70
2019-01-12T06:24:20.745Z,92.80
2019-01-12T06:26:50.348Z,93.00
2019-01-12T06:29:19.977Z,93.00
2019-01-12T06:31:49.830Z,93.10
2019-01-12T06:34:19.517Z,93.10
2019-01-12T06:36:49.193Z,93.30
2019-01-12T06:39:18.831Z,93.10
2019-01-12T06:41:48.432Z,93.10
2019-01-12T06:44:18.379Z,93.10
2019-01-12T06:46:47.986Z,93.00
2019-01-12T06:49:17.649Z,92.90
2019-01-12T06:51:47.792Z,92.90
2019-01-12T06:54:17.588Z,92.90
2019-01-12T06:56:47.573Z,92.90
2019-01-12T06:59:17.216Z,92.90
2019-01-12T07:01:47.153Z,92.90
2019-01-12T07:04:16.777Z,93.10
2019-01-12T07:06:46.397Z,93.20
2019-01-12T07:09:16.004Z,93.50
2019-01-12T07:11:45.994Z,93.50
2019-01-12T07:14:15.888Z,93.70
2019-01-12T07:16:45.500Z,93.60
2019-01-12T07:19:15.138Z,93.50
2019-01-12T07:21:44.948Z,93.50
2019-01-12T07:24:14.561Z,93.60
2019-01-12T07:26:44.186Z,93.60
2019-01-12T07:29:13.790Z,93.50
2019-01-12T07:31:43.997Z,93.40
2019-01-12T07:34:13.985Z,93.20
2019-01-12T07:36:43.603Z,93.20
2019-01-12T07:39:14.280Z,93.00
2019-01-12T07:41:43.906Z,93.40
2019-01-12T07:44:13.518Z,93.50
2019-01-12T07:46:43.137Z,93.30
2019-01-12T07:49:12.737Z,93.50
2019-01-12T07:51:42.437Z,93.50
2019-01-12T07:54:12.132Z,93.60
2019-01-12T07:56:41.753Z,93.60
2019-01-12T07:59:11.362Z,93.40
2019-01-12T08:01:41.281Z,93.50
2019-01-12T08:04:10.888Z,93.90
2019-01-12T08:06:40.596Z,93.80
2019-01-12T08:09:10.268Z,93.80
2019-01-12T08:11:40.473Z,93.50
2019-01-12T08:14:10.342Z,93.50
2019-01-12T08:16:40.030Z,93.50
2019-01-12T08:19:10.202Z,93.50
2019-01-12T08:21:39.812Z,93.10
2019-01-12T08:24:09.652Z,93.10
2019-01-12T08:26:39.268Z,93.00
2019-01-12T08:29:08.877Z,92.70
2019-01-12T08:31:38.517Z,92.80
2019-01-12T08:34:08.584Z,92.70
2019-01-12T08:36:38.192Z,92.60
2019-01-12T08:39:08.047Z,92.60
2019-01-12T08:41:37.662Z,92.70
2019-01-12T08:44:07.313Z,92.60
2019-01-12T08:46:37.194Z,92.50
2019-01-12T08:49:06.810Z,92.50
2019-01-12T08:51:36.486Z,92.60
2019-01-12T08:54:06.182Z,92.40
2019-01-12T08:56:38.381Z,92.80
2019-01-12T08:59:07.170Z,92.90
2019-01-12T09:01:37.909Z,92.70
2019-01-12T09:04:07.630Z,92.70
2019-01-12T09:06:37.233Z,92.60
2019-01-12T09:09:08.698Z,92.40
2019-01-12T09:11:38.350Z,92.30
2019-01-12T09:14:08.048Z,92.40
2019-01-12T09:16:37.913Z,92.30
2019-01-12T09:19:07.617Z,91.90
2019-01-12T09:21:37.287Z,92.00
2019-01-12T09:24:07.247Z,92.10
2019-01-12T09:26:36.906Z,92.10
2019-01-12T09:29:06.596Z,92.10
2019-01-12T09:31:36.493Z,92.00
2019-01-12T09:34:06.588Z,92.00
2019-01-12T09:36:36.276Z,91.70
2019-01-12T09:39:08.653Z,91.90
2019-01-12T09:41:38.609Z,91.50
2019-01-12T09:44:08.305Z,91.50
2019-01-12T09:46:38.329Z,91.60
2019-01-12T09:49:07.960Z,91.70
2019-01-12T09:51:37.616Z,91.60
2019-01-12T09:54:07.438Z,91.70
2019-01-12T09:56:37.316Z,91.80
2019-01-12T09:59:06.976Z,91.50
2019-01-12T10:01:36.685Z,91.50
2019-01-12T10:04:06.448Z,91.60
2019-01-12T10:06:36.075Z,91.40
2019-01-12T10:09:07.822Z,91.50
2019-01-12T10:11:37.441Z,91.40
2019-01-12T10:14:07.130Z,91.40
2019-01-12T10:16:36.893Z,91.60
2019-01-12T10:19:06.741Z,91.50
2019-01-12T10:21:36.367Z,91.50
2019-01-12T10:24:06.689Z,91.60
2019-01-12T10:26:36.713Z,91.60
2019-01-12T10:29:06.548Z,91.70
2019-01-12T10:31:36.177Z,91.70
2019-01-12T10:34:05.960Z,91.80
2019-01-12T10:36:35.572Z,91.80
2019-01-12T10:39:07.918Z,91.80
2019-01-12T10:41:38.113Z,91.90
2019-01-12T10:44:08.162Z,91.90
2019-01-12T10:46:37.853Z,91.90
2019-01-12T10:49:07.541Z,92.10
2019-01-12T10:51:37.230Z,92.20
2019-01-12T10:54:06.910Z,92.40
2019-01-12T10:56:36.523Z,92.60
2019-01-12T10:59:06.483Z,92.60
2019-01-12T11:01:36.110Z,92.70
2019-01-12T11:04:06.518Z,92.80
2019-01-12T11:06:36.163Z,92.80
2019-01-12T11:09:08.268Z,92.80
2019-01-12T11:11:37.893Z,93.20
2019-01-12T11:14:07.552Z,93.00
2019-01-12T11:16:37.782Z,92.90
2019-01-12T11:19:07.799Z,92.80
2019-01-12T11:21:37.495Z,92.50
2019-01-12T11:24:07.301Z,92.40
2019-01-12T11:26:37.306Z,92.60
2019-01-12T11:29:08.504Z,92.80
2019-01-12T11:31:38.216Z,93.00
2019-01-12T11:34:08.243Z,92.90
2019-01-12T11:36:38.232Z,92.90
2019-01-12T11:39:08.289Z,92.80
2019-01-12T11:41:37.903Z,92.80
2019-01-12T11:44:07.921Z,92.60
2019-01-12T11:46:37.540Z,92.70
2019-01-12T11:49:07.578Z,92.80
2019-01-12T11:51:37.343Z,92.70
2019-01-12T11:54:06.965Z,92.60
2019-01-12T11:56:37.716Z,92.50
2019-01-12T11:59:07.618Z,92.70
2019-01-12T12:01:37.565Z,92.80
2019-01-12T12:04:07.551Z,92.70
2019-01-12T12:06:37.178Z,92.60
2019-01-12T12:09:08.709Z,92.70
2019-01-12T12:11:38.394Z,92.70
2019-01-12T12:14:08.049Z,92.80
2019-01-12T12:16:37.656Z,92.70
2019-01-12T12:19:07.293Z,92.90
2019-01-12T12:21:36.977Z,92.80
2019-01-12T12:24:06.958Z,92.60
2019-01-12T12:26:36.685Z,92.80
2019-01-12T12:29:06.756Z,92.70
2019-01-12T12:31:36.360Z,92.70
2019-01-12T12:34:06.077Z,92.90
2019-01-12T12:36:35.680Z,92.90
2019-01-12T12:39:07.376Z,93.00
2019-01-12T12:41:36.994Z,93.10
2019-01-12T12:44:07.000Z,93.00
2019-01-12T12:46:37.756Z,92.90
2019-01-12T12:49:07.366Z,92.80
2019-01-12T12:51:36.976Z,92.80
2019-01-12T12:54:06.599Z,92.90
2019-01-12T12:56:36.288Z,93.00
2019-01-12T12:59:06.051Z,93.00
2019-01-12T13:01:35.662Z,93.00
2019-01-12T13:04:05.417Z,93.00
2019-01-12T13:06:35.283Z,93.10
2019-01-12T13:09:08.105Z,93.10
2019-01-12T13:11:38.129Z,93.10
2019-01-12T13:14:08.180Z,93.10
2019-01-12T13:16:38.076Z,93.00
2019-01-12T13:19:07.699Z,93.00
2019-01-12T13:21:37.613Z,93.20
2019-01-12T13:24:07.565Z,93.20
2019-01-12T13:26:37.190Z,93.20
2019-01-12T13:29:06.803Z,93.20
2019-01-12T13:31:36.521Z,93.40
2019-01-12T13:34:06.128Z,93.40
2019-01-12T13:36:35.920Z,93.50
2019-01-12T13:39:07.710Z,93.60
2019-01-12T13:41:37.323Z,93.60
2019-01-12T13:44:07.048Z,93.40
2019-01-12T13:46:37.161Z,93.40
2019-01-12T13:49:06.852Z,93.20
2019-01-12T13:51:36.705Z,93.50
2019-01-12T13:54:06.412Z,93.70
2019-01-12T13:56:36.102Z,93.80
2019-01-12T13:59:06.326Z,93.80
2019-01-12T14:01:35.941Z,93.80
2019-01-12T14:04:05.761Z,93.80
2019-01-12T14:06:35.374Z,93.70
2019-01-12T14:09:08.341Z,93.60
2019-01-12T14:11:38.005Z,93.50
2019-01-12T14:14:07.609Z,93.60
2019-01-12T14:16:37.668Z,93.60
2019-01-12T14:19:07.567Z,93.50
2019-01-12T14:21:37.541Z,93.30
2019-01-12T14:24:07.145Z,93.30
2019-01-12T14:26:36.871Z,93.30
2019-01-12T14:29:06.496Z,93.40
2019-01-12T14:31:36.681Z,93.40
2019-01-12T14:34:06.704Z,93.10
2019-01-12T14:36:36.304Z,93.20
2019-01-12T14:39:09.966Z,93.30
2019-01-12T14:41:39.573Z,92.90
2019-01-12T14:44:09.425Z,92.80
2019-01-12T14:46:39.446Z,93.00
2019-01-12T14:49:09.098Z,93.00
2019-01-12T14:51:39.250Z,92.80
2019-01-12T14:54:08.881Z,92.90
2019-01-12T14:56:38.494Z,92.60
2019-01-12T14:59:08.161Z,92.70
2019-01-12T15:01:38.218Z,92.70
2019-01-12T15:04:08.080Z,92.80
2019-01-12T15:06:37.729Z,92.70
2019-01-12T15:09:08.256Z,92.70
2019-01-12T15:11:38.113Z,92.70
2019-01-12T15:14:07.724Z,92.70
2019-01-12T15:16:37.335Z,92.90
2019-01-12T15:19:07.253Z,92.70
2019-01-12T15:21:37.829Z,92.60
2019-01-12T15:24:08.088Z,92.60
2019-01-12T15:26:38.076Z,92.70
2019-01-12T15:29:07.741Z,92.80
2019-01-12T15:31:37.364Z,92.90
2019-01-12T15:34:07.344Z,92.90
2019-01-12T15:36:36.952Z,92.80
2019-01-12T15:39:07.548Z,92.40
2019-01-12T15:41:37.853Z,92.40
2019-01-12T15:44:07.824Z,92.40
2019-01-12T15:46:37.442Z,92.30
2019-01-12T15:49:07.142Z,92.20
2019-01-12T15:51:37.149Z,91.60
2019-01-12T15:54:06.765Z,91.70
2019-01-12T15:56:36.372Z,91.80
2019-01-12T15:59:06.301Z,91.50
2019-01-12T16:01:35.989Z,91.60
2019-01-12T16:04:05.840Z,91.60
2019-01-12T16:06:35.458Z,91.60
2019-01-12T16:09:07.838Z,91.60
2019-01-12T16:11:37.451Z,91.60
2019-01-12T16:14:07.396Z,91.60
2019-01-12T16:16:37.008Z,91.60
2019-01-12T16:19:06.646Z,91.60
2019-01-12T16:21:36.292Z,91.70
2019-01-12T16:24:05.985Z,91.70
2019-01-12T16:26:35.587Z,91.80
2019-01-12T16:29:05.694Z,92.00
2019-01-12T16:31:35.422Z,92.10
2019-01-12T16:34:05.117Z,92.30
2019-01-12T16:36:34.753Z,92.50
2019-01-12T16:39:06.298Z,92.40
2019-01-12T16:41:35.996Z,92.40
2019-01-12T16:44:05.947Z,92.00
2019-01-12T16:46:35.543Z,92.10
2019-01-12T16:49:05.308Z,92.00
2019-01-12T16:51:34.921Z,91.90
2019-01-12T16:54:04.781Z,91.80
2019-01-12T16:56:34.389Z,91.80
2019-01-12T16:59:04.089Z,91.60
2019-01-12T17:01:34.072Z,91.70
2019-01-12T17:04:03.698Z,92.10
2019-01-12T17:06:33.353Z,91.70
2019-01-12T17:09:04.188Z,91.60
2019-01-12T17:11:34.768Z,91.70
2019-01-12T17:14:04.705Z,91.70
2019-01-12T17:16:35.280Z,91.70
2019-01-12T17:19:04.997Z,91.80
2019-01-12T17:21:34.609Z,92.00
2019-01-12T17:24:04.482Z,91.90
2019-01-12T17:26:34.165Z,92.10
2019-01-12T17:29:04.089Z,92.50
2019-01-12T17:31:34.536Z,92.20
2019-01-12T17:34:04.525Z,92.30
2019-01-12T17:36:34.578Z,92.30
2019-01-12T17:39:09.069Z,92.20
2019-01-12T17:41:38.697Z,92.30
2019-01-12T17:44:08.309Z,92.30
2019-01-12T17:46:37.930Z,92.40
2019-01-12T17:49:07.533Z,92.40
2019-01-12T17:51:37.153Z,92.30
2019-01-12T17:54:06.817Z,92.40
2019-01-12T17:56:36.473Z,92.10
2019-01-12T17:59:06.482Z,92.10
2019-01-12T18:01:36.189Z,92.00
2019-01-12T18:04:05.921Z,92.00
2019-01-12T18:06:35.924Z,91.40
2019-01-12T18:09:07.186Z,91.80
2019-01-12T18:11:37.011Z,92.20
2019-01-12T18:14:06.690Z,92.20
2019-01-12T18:16:36.401Z,92.30
2019-01-12T18:19:06.111Z,92.30
2019-01-12T18:21:35.793Z,92.30
2019-01-12T18:24:05.476Z,92.40
2019-01-12T18:26:36.183Z,92.40
2019-01-12T18:29:06.098Z,92.60
2019-01-12T18:31:36.433Z,92.80
2019-01-12T18:34:06.105Z,92.90
2019-01-12T18:36:35.745Z,92.80
2019-01-12T18:39:07.516Z,92.70
2019-01-12T18:41:37.456Z,92.70
2019-01-12T18:44:07.466Z,92.50
2019-01-12T18:46:37.076Z,92.40
2019-01-12T18:49:06.958Z,92.40
2019-01-12T18:51:36.676Z,92.50
2019-01-12T18:54:06.600Z,92.40
2019-01-12T18:56:36.260Z,92.50
2019-01-12T18:59:06.512Z,92.60
2019-01-12T19:01:36.229Z,92.60
2019-01-12T19:04:05.959Z,92.80
2019-01-12T19:06:35.646Z,92.50
2019-01-12T19:09:07.662Z,92.60
2019-01-12T19:11:37.440Z,92.50
2019-01-12T19:14:07.061Z,92.50
2019-01-12T19:16:37.215Z,92.40
2019-01-12T19:19:07.195Z,92.50
2019-01-12T19:21:36.832Z,92.70
2019-01-12T19:24:06.787Z,92.60
2019-01-12T19:26:36.405Z,92.60
2019-01-12T19:29:06.626Z,92.60
2019-01-12T19:31:36.497Z,92.80
2019-01-12T19:34:06.176Z,93.00
2019-01-12T19:36:35.812Z,93.10
2019-01-12T19:39:08.428Z,93.10
2019-01-12T19:41:38.390Z,93.00
2019-01-12T19:44:08.081Z,92.80
2019-01-12T19:46:37.924Z,92.70
2019-01-12T19:49:07.533Z,92.70
2019-01-12T19:51:37.153Z,92.70
2019-01-12T19:54:06.806Z,92.70
2019-01-12T19:56:36.431Z,92.50
2019-01-12T19:59:13.461Z,92.60
2019-01-12T20:01:37.885Z,92.60
2019-01-12T20:04:07.504Z,92.60
2019-01-12T20:06:37.115Z,92.70
2019-01-12T20:09:08.741Z,92.70
2019-01-12T20:11:38.393Z,92.90
2019-01-12T20:14:08.169Z,92.40
2019-01-12T20:16:38.804Z,92.70
2019-01-12T20:19:08.412Z,92.00
2019-01-12T20:21:38.044Z,92.60
2019-01-12T20:24:08.049Z,92.30
2019-01-12T20:26:38.109Z,92.80
2019-01-12T20:29:08.115Z,92.50
2019-01-12T20:31:53.710Z,92.60
2019-01-12T20:34:33.844Z,92.60
2019-01-12T20:37:36.613Z,92.60
2019-01-12T20:40:54.676Z,92.80
2019-01-12T20:43:40.384Z,93.00
2019-01-12T20:46:48.270Z,93.20
2019-01-12T20:49:43.276Z,93.10
2019-01-12T20:52:38.848Z,93.10
2019-01-12T20:55:49.066Z,93.00
2019-01-12T20:59:03.305Z,93.00
2019-01-12T21:02:04.798Z,92.90
2019-01-12T21:05:11.400Z,92.30
2019-01-12T21:08:07.417Z,92.50
2019-01-12T21:11:20.864Z,92.50
2019-01-12T21:14:31.080Z,92.50
2019-01-12T21:17:06.717Z,92.10
2019-01-12T21:19:36.830Z,92.20
2019-01-12T21:22:06.679Z,91.40
2019-01-12T21:24:36.768Z,91.30
2019-01-12T21:27:06.456Z,91.20
2019-01-12T21:29:36.153Z,91.40
2019-01-12T21:32:06.040Z,91.50
2019-01-12T21:34:36.048Z,91.50
2019-01-12T21:37:06.013Z,91.70
2019-01-12T21:39:35.634Z,91.50
2019-01-12T21:42:05.496Z,91.50
2019-01-12T21:44:35.108Z,91.50
2019-01-12T21:47:05.135Z,91.50
2019-01-12T21:49:35.100Z,91.60
2019-01-12T21:52:04.794Z,91.50
2019-01-12T21:54:34.445Z,91.40
2019-01-12T21:57:04.354Z,91.80
2019-01-12T21:59:34.520Z,91.70
2019-01-12T22:02:04.200Z,91.80
2019-01-12T22:04:34.122Z,91.60
2019-01-12T22:07:03.730Z,91.50
2019-01-12T22:09:33.610Z,91.40
2019-01-12T22:12:03.288Z,91.30
2019-01-12T22:14:33.136Z,91.40
2019-01-12T22:17:02.746Z,91.30
2019-01-12T22:19:32.674Z,91.50
2019-01-12T22:22:02.289Z,91.30
2019-01-12T22:24:32.202Z,91.20
2019-01-12T22:27:01.894Z,91.30
2019-01-12T22:29:31.805Z,91.10
2019-01-12T22:32:02.032Z,91.10
2019-01-12T22:34:32.969Z,91.00
2019-01-12T22:37:02.580Z,91.00
2019-01-12T22:39:32.268Z,91.10
2019-01-12T22:42:01.894Z,91.20
2019-01-12T22:44:31.501Z,91.10
2019-01-12T22:47:01.122Z,91.20
2019-01-12T22:49:31.058Z,91.30
2019-01-12T22:52:00.769Z,91.20
2019-01-12T22:54:30.442Z,91.60
2019-01-12T22:57:00.061Z,91.50
2019-01-12T22:59:29.677Z,91.60
2019-01-12T23:02:05.073Z,91.50
2019-01-12T23:04:36.375Z,91.60
2019-01-12T23:07:11.418Z,91.60
2019-01-12T23:09:37.488Z,91.70
2019-01-12T23:12:07.417Z,91.80
2019-01-12T23:14:37.172Z,91.90
2019-01-12T23:17:06.928Z,91.90
2019-01-12T23:19:36.926Z,91.90
2019-01-12T23:22:06.628Z,92.10
2019-01-12T23:24:36.241Z,92.40
2019-01-12T23:27:05.936Z,92.40
2019-01-12T23:29:35.543Z,92.40
2019-01-12T23:32:05.858Z,92.40
2019-01-12T23:34:35.543Z,92.40
2019-01-12T23:37:05.486Z,92.60
2019-01-12T23:39:35.084Z,92.80
2019-01-12T23:42:05.199Z,92.90
2019-01-12T23:44:34.806Z,93.20
2019-01-12T23:47:04.502Z,93.20
2019-01-12T23:49:34.120Z,93.10
2019-01-12T23:52:04.005Z,93.00
2019-01-12T23:54:33.694Z,93.10
2019-01-12T23:57:03.293Z,93.30
2019-01-12T23:59:33.156Z,93.30
